sensor_id;sensor_type;location;lat;lon;timestamp;temperature;humidity
17033;DHT22;63208;52.178;21.016;2022-09-12T00:01:11;12.20;99.90
17033;DHT22;63208;52.178;21.016;2022-09-12T00:03:39;12.20;99.90
17033;DHT22;63208;52.178;21.016;2022-09-12T00:06:11;12.20;99.90
17033;DHT22;63208;52.178;21.016;2022-09-12T00:08:38;12.10;99.90
17033;DHT22;63208;52.178;21.016;2022-09-12T00:11:07;12.10;99.90
17033;DHT22;63208;52.178;21.016;2022-09-12T00:13:35;12.10;99.90
17033;DHT22;63208;52.178;21.016;2022-09-12T00:16:02;12.00;99.90
17033;DHT22;63208;52.178;21.016;2022-09-12T00:18:32;12.10;99.90
17033;DHT22;63208;52.178;21.016;2022-09-12T00:21:02;12.10;99.90
17033;DHT22;63208;52.178;21.016;2022-09-12T00:23:30;12.00;99.90
17033;DHT22;63208;52.178;21.016;2022-09-12T00:25:57;12.00;99.90
17033;DHT22;63208;52.178;21.016;2022-09-12T00:28:24;12.00;99.90
17033;DHT22;63208;52.178;21.016;2022-09-12T00:30:51;12.00;99.90
17033;DHT22;63208;52.178;21.016;2022-09-12T00:33:18;12.00;99.90
17033;DHT22;63208;52.178;21.016;2022-09-12T00:35:48;12.00;99.90
17033;DHT22;63208;52.178;21.016;2022-09-12T00:38:18;12.00;99.90
17033;DHT22;63208;52.178;21.016;2022-09-12T00:40:45;12.00;99.90
17033;DHT22;63208;52.178;21.016;2022-09-12T00:43:14;12.00;99.90
17033;DHT22;63208;52.178;21.016;2022-09-12T00:45:41;12.00;99.90
17033;DHT22;63208;52.178;21.016;2022-09-12T00:48:16;12.00;99.90
17033;DHT22;63208;52.178;21.016;2022-09-12T00:50:47;11.90;99.90
17033;DHT22;63208;52.178;21.016;2022-09-12T00:53:14;11.90;99.90
17033;DHT22;63208;52.178;21.016;2022-09-12T00:55:45;12.00;99.90
17033;DHT22;63208;52.178;21.016;2022-09-12T00:58:17;11.90;99.90
17033;DHT22;63208;52.178;21.016;2022-09-12T01:00:46;11.90;99.90
17033;DHT22;63208;52.178;21.016;2022-09-12T01:03:16;11.90;99.90
17033;DHT22;63208;52.178;21.016;2022-09-12T01:05:49;11.90;99.90
17033;DHT22;63208;52.178;21.016;2022-09-12T01:08:19;11.90;99.90
17033;DHT22;63208;52.178;21.016;2022-09-12T01:10:47;11.90;99.90
17033;DHT22;63208;52.178;21.016;2022-09-12T01:13:14;11.90;99.90
17033;DHT22;63208;52.178;21.016;2022-09-12T01:15:41;11.90;99.90
17033;DHT22;63208;52.178;21.016;2022-09-12T01:18:16;11.90;99.90
17033;DHT22;63208;52.178;21.016;2022-09-12T01:27:06;11.90;99.90
17033;DHT22;63208;52.178;21.016;2022-09-12T01:29:50;11.90;99.90
17033;DHT22;63208;52.178;21.016;2022-09-12T01:32:32;11.80;99.90
17033;DHT22;63208;52.178;21.016;2022-09-12T01:35:06;11.90;99.90
17033;DHT22;63208;52.178;21.016;2022-09-12T01:37:39;11.80;99.90
17033;DHT22;63208;52.178;21.016;2022-09-12T01:40:11;11.80;99.90
17033;DHT22;63208;52.178;21.016;2022-09-12T01:42:43;11.80;99.90
17033;DHT22;63208;52.178;21.016;2022-09-12T01:45:20;11.80;99.90
17033;DHT22;63208;52.178;21.016;2022-09-12T01:47:55;11.80;99.90
17033;DHT22;63208;52.178;21.016;2022-09-12T01:50:27;11.80;99.90
17033;DHT22;63208;52.178;21.016;2022-09-12T01:52:58;11.80;99.90
17033;DHT22;63208;52.178;21.016;2022-09-12T01:55:29;11.80;99.90
17033;DHT22;63208;52.178;21.016;2022-09-12T01:57:59;11.70;99.90
17033;DHT22;63208;52.178;21.016;2022-09-12T02:00:29;11.80;99.90
17033;DHT22;63208;52.178;21.016;2022-09-12T02:03:00;11.70;99.90
17033;DHT22;63208;52.178;21.016;2022-09-12T02:05:32;11.70;99.90
17033;DHT22;63208;52.178;21.016;2022-09-12T02:08:04;11.60;99.90
17033;DHT22;63208;52.178;21.016;2022-09-12T02:10:35;11.70;99.90
17033;DHT22;63208;52.178;21.016;2022-09-12T02:13:09;11.70;99.90
17033;DHT22;63208;52.178;21.016;2022-09-12T02:15:41;11.70;99.90
17033;DHT22;63208;52.178;21.016;2022-09-12T02:18:12;11.60;99.90
17033;DHT22;63208;52.178;21.016;2022-09-12T02:20:40;11.70;99.90
17033;DHT22;63208;52.178;21.016;2022-09-12T02:23:13;11.60;99.90
17033;DHT22;63208;52.178;21.016;2022-09-12T02:25:44;11.60;99.90
17033;DHT22;63208;52.178;21.016;2022-09-12T02:28:14;11.60;99.90
17033;DHT22;63208;52.178;21.016;2022-09-12T02:30:48;11.60;99.90
17033;DHT22;63208;52.178;21.016;2022-09-12T02:33:23;11.60;99.90
17033;DHT22;63208;52.178;21.016;2022-09-12T02:35:54;11.60;99.90
17033;DHT22;63208;52.178;21.016;2022-09-12T02:38:26;11.60;99.90
17033;DHT22;63208;52.178;21.016;2022-09-12T02:40:56;11.60;99.90
17033;DHT22;63208;52.178;21.016;2022-09-12T02:43:23;11.60;99.90
17033;DHT22;63208;52.178;21.016;2022-09-12T02:45:50;11.60;99.90
17033;DHT22;63208;52.178;21.016;2022-09-12T02:48:20;11.60;99.90
17033;DHT22;63208;52.178;21.016;2022-09-12T02:50:49;11.70;99.90
17033;DHT22;63208;52.178;21.016;2022-09-12T02:53:17;11.70;99.90
17033;DHT22;63208;52.178;21.016;2022-09-12T02:55:44;11.70;99.90
17033;DHT22;63208;52.178;21.016;2022-09-12T02:58:15;11.70;99.90
17033;DHT22;63208;52.178;21.016;2022-09-12T03:00:48;11.70;99.90
17033;DHT22;63208;52.178;21.016;2022-09-12T03:03:32;11.70;99.90
17033;DHT22;63208;52.178;21.016;2022-09-12T03:06:03;11.60;99.90
17033;DHT22;63208;52.178;21.016;2022-09-12T03:08:53;11.60;99.90
17033;DHT22;63208;52.178;21.016;2022-09-12T03:11:36;11.60;99.90
17033;DHT22;63208;52.178;21.016;2022-09-12T03:14:15;11.60;99.90
17033;DHT22;63208;52.178;21.016;2022-09-12T03:16:59;11.60;99.90
17033;DHT22;63208;52.178;21.016;2022-09-12T03:19:42;11.60;99.90
17033;DHT22;63208;52.178;21.016;2022-09-12T03:22:15;11.50;99.90
17033;DHT22;63208;52.178;21.016;2022-09-12T03:24:50;11.50;99.90
17033;DHT22;63208;52.178;21.016;2022-09-12T03:27:23;11.60;99.90
17033;DHT22;63208;52.178;21.016;2022-09-12T03:29:53;11.50;99.90
17033;DHT22;63208;52.178;21.016;2022-09-12T03:32:39;11.50;99.90
17033;DHT22;63208;52.178;21.016;2022-09-12T03:35:08;11.50;99.90
17033;DHT22;63208;52.178;21.016;2022-09-12T03:37:35;11.50;99.90
17033;DHT22;63208;52.178;21.016;2022-09-12T03:40:02;11.50;99.90
17033;DHT22;63208;52.178;21.016;2022-09-12T03:59:30;11.00;99.90
17033;DHT22;63208;52.178;21.016;2022-09-12T04:01:57;11.00;99.90
17033;DHT22;63208;52.178;21.016;2022-09-12T04:04:24;10.80;99.90
17033;DHT22;63208;52.178;21.016;2022-09-12T04:06:51;10.70;99.90
17033;DHT22;63208;52.178;21.016;2022-09-12T04:09:18;10.70;99.90
17033;DHT22;63208;52.178;21.016;2022-09-12T04:11:45;10.70;99.90
17033;DHT22;63208;52.178;21.016;2022-09-12T04:14:12;10.60;99.90
17033;DHT22;63208;52.178;21.016;2022-09-12T04:16:40;10.70;99.90
17033;DHT22;63208;52.178;21.016;2022-09-12T04:19:08;10.60;99.90
17033;DHT22;63208;52.178;21.016;2022-09-12T04:21:36;10.60;99.90
17033;DHT22;63208;52.178;21.016;2022-09-12T04:24:04;10.60;99.90
17033;DHT22;63208;52.178;21.016;2022-09-12T04:26:31;10.60;99.90
17033;DHT22;63208;52.178;21.016;2022-09-12T04:28:58;10.60;99.90
17033;DHT22;63208;52.178;21.016;2022-09-12T04:31:25;10.50;99.90
17033;DHT22;63208;52.178;21.016;2022-09-12T04:33:55;10.50;99.90
17033;DHT22;63208;52.178;21.016;2022-09-12T04:36:23;9.50;99.90
17033;DHT22;63208;52.178;21.016;2022-09-12T04:38:51;10.50;99.90
17033;DHT22;63208;52.178;21.016;2022-09-12T04:41:20;10.50;99.90
17033;DHT22;63208;52.178;21.016;2022-09-12T04:43:50;10.50;99.90
17033;DHT22;63208;52.178;21.016;2022-09-12T04:46:18;10.50;99.90
17033;DHT22;63208;52.178;21.016;2022-09-12T04:48:46;10.50;99.90
17033;DHT22;63208;52.178;21.016;2022-09-12T04:51:16;10.50;99.90
17033;DHT22;63208;52.178;21.016;2022-09-12T04:53:47;10.50;99.90
17033;DHT22;63208;52.178;21.016;2022-09-12T04:56:15;10.50;99.90
17033;DHT22;63208;52.178;21.016;2022-09-12T04:58:42;10.70;99.90
17033;DHT22;63208;52.178;21.016;2022-09-12T05:01:10;10.40;99.90
17033;DHT22;63208;52.178;21.016;2022-09-12T05:03:39;10.50;99.90
17033;DHT22;63208;52.178;21.016;2022-09-12T05:06:10;10.60;99.90
17033;DHT22;63208;52.178;21.016;2022-09-12T05:08:38;10.60;99.90
17033;DHT22;63208;52.178;21.016;2022-09-12T05:11:08;10.60;99.90
17033;DHT22;63208;52.178;21.016;2022-09-12T05:13:35;10.60;99.90
17033;DHT22;63208;52.178;21.016;2022-09-12T05:16:05;10.60;99.90
17033;DHT22;63208;52.178;21.016;2022-09-12T05:18:33;10.60;99.90
17033;DHT22;63208;52.178;21.016;2022-09-12T05:21:01;10.60;99.90
17033;DHT22;63208;52.178;21.016;2022-09-12T05:23:29;10.70;99.90
17033;DHT22;63208;52.178;21.016;2022-09-12T05:25:58;10.70;99.90
17033;DHT22;63208;52.178;21.016;2022-09-12T05:28:29;10.70;99.90
17033;DHT22;63208;52.178;21.016;2022-09-12T05:31:00;10.70;99.90
17033;DHT22;63208;52.178;21.016;2022-09-12T05:33:27;10.70;99.90
17033;DHT22;63208;52.178;21.016;2022-09-12T05:35:54;10.70;99.90
17033;DHT22;63208;52.178;21.016;2022-09-12T05:38:21;10.70;99.90
17033;DHT22;63208;52.178;21.016;2022-09-12T05:40:49;10.80;99.90
17033;DHT22;63208;52.178;21.016;2022-09-12T05:43:17;10.80;99.90
17033;DHT22;63208;52.178;21.016;2022-09-12T05:45:45;10.80;99.90
17033;DHT22;63208;52.178;21.016;2022-09-12T05:48:11;10.80;99.90
17033;DHT22;63208;52.178;21.016;2022-09-12T05:50:39;10.80;99.90
17033;DHT22;63208;52.178;21.016;2022-09-12T05:53:07;10.90;99.90
17033;DHT22;63208;52.178;21.016;2022-09-12T05:55:34;10.90;99.90
17033;DHT22;63208;52.178;21.016;2022-09-12T05:58:01;10.90;99.90
17033;DHT22;63208;52.178;21.016;2022-09-12T06:00:29;11.00;99.90
17033;DHT22;63208;52.178;21.016;2022-09-12T06:02:56;10.90;99.90
17033;DHT22;63208;52.178;21.016;2022-09-12T06:05:23;10.90;99.90
17033;DHT22;63208;52.178;21.016;2022-09-12T06:07:50;10.80;99.90
17033;DHT22;63208;52.178;21.016;2022-09-12T06:10:17;10.80;99.90
17033;DHT22;63208;52.178;21.016;2022-09-12T06:12:46;10.80;99.90
17033;DHT22;63208;52.178;21.016;2022-09-12T06:15:13;10.70;99.90
17033;DHT22;63208;52.178;21.016;2022-09-12T06:17:42;10.80;99.90
17033;DHT22;63208;52.178;21.016;2022-09-12T06:24:10;10.90;99.90
17033;DHT22;63208;52.178;21.016;2022-09-12T06:26:37;10.80;99.90
17033;DHT22;63208;52.178;21.016;2022-09-12T06:29:04;10.90;99.90
17033;DHT22;63208;52.178;21.016;2022-09-12T06:31:34;11.00;99.90
17033;DHT22;63208;52.178;21.016;2022-09-12T06:34:05;11.10;99.90
17033;DHT22;63208;52.178;21.016;2022-09-12T06:36:35;11.20;99.90
17033;DHT22;63208;52.178;21.016;2022-09-12T06:39:04;11.10;99.90
17033;DHT22;63208;52.178;21.016;2022-09-12T06:41:32;11.20;99.90
17033;DHT22;63208;52.178;21.016;2022-09-12T06:44:00;11.10;99.90
17033;DHT22;63208;52.178;21.016;2022-09-12T06:46:27;11.20;99.90
17033;DHT22;63208;52.178;21.016;2022-09-12T06:48:55;11.20;99.90
17033;DHT22;63208;52.178;21.016;2022-09-12T06:51:25;11.20;99.90
17033;DHT22;63208;52.178;21.016;2022-09-12T06:53:54;11.20;99.90
17033;DHT22;63208;52.178;21.016;2022-09-12T06:56:22;11.20;99.90
17033;DHT22;63208;52.178;21.016;2022-09-12T06:58:50;11.20;99.90
17033;DHT22;63208;52.178;21.016;2022-09-12T07:01:19;11.40;99.90
17033;DHT22;63208;52.178;21.016;2022-09-12T07:03:49;11.30;99.90
17033;DHT22;63208;52.178;21.016;2022-09-12T07:06:17;11.30;99.90
17033;DHT22;63208;52.178;21.016;2022-09-12T07:14:00;11.40;99.90
17033;DHT22;63208;52.178;21.016;2022-09-12T07:16:27;11.50;99.90
17033;DHT22;63208;52.178;21.016;2022-09-12T07:18:56;11.40;99.90
17033;DHT22;63208;52.178;21.016;2022-09-12T07:21:23;11.40;99.90
17033;DHT22;63208;52.178;21.016;2022-09-12T07:23:50;11.40;99.90
17033;DHT22;63208;52.178;21.016;2022-09-12T07:26:23;11.40;99.90
17033;DHT22;63208;52.178;21.016;2022-09-12T07:28:51;11.40;99.90
17033;DHT22;63208;52.178;21.016;2022-09-12T07:31:21;11.40;99.90
17033;DHT22;63208;52.178;21.016;2022-09-12T07:33:49;11.50;99.90
17033;DHT22;63208;52.178;21.016;2022-09-12T07:36:18;11.50;99.90
17033;DHT22;63208;52.178;21.016;2022-09-12T07:38:45;11.40;99.90
17033;DHT22;63208;52.178;21.016;2022-09-12T07:41:12;11.50;99.90
17033;DHT22;63208;52.178;21.016;2022-09-12T07:43:40;11.60;99.90
17033;DHT22;63208;52.178;21.016;2022-09-12T07:46:08;11.70;99.90
17033;DHT22;63208;52.178;21.016;2022-09-12T07:48:36;11.80;99.90
17033;DHT22;63208;52.178;21.016;2022-09-12T07:51:05;11.90;99.90
17033;DHT22;63208;52.178;21.016;2022-09-12T07:53:35;12.00;99.90
17033;DHT22;63208;52.178;21.016;2022-09-12T07:56:03;12.00;99.90
17033;DHT22;63208;52.178;21.016;2022-09-12T07:58:31;11.90;99.90
17033;DHT22;63208;52.178;21.016;2022-09-12T08:01:02;11.90;99.90
17033;DHT22;63208;52.178;21.016;2022-09-12T08:03:29;12.00;99.90
17033;DHT22;63208;52.178;21.016;2022-09-12T08:06:03;11.90;99.90
17033;DHT22;63208;52.178;21.016;2022-09-12T08:08:30;11.90;99.90
17033;DHT22;63208;52.178;21.016;2022-09-12T08:10:57;12.00;99.90
17033;DHT22;63208;52.178;21.016;2022-09-12T08:13:25;12.00;99.90
17033;DHT22;63208;52.178;21.016;2022-09-12T08:15:56;12.10;99.90
17033;DHT22;63208;52.178;21.016;2022-09-12T08:18:24;12.10;99.90
17033;DHT22;63208;52.178;21.016;2022-09-12T08:20:56;12.10;99.90
17033;DHT22;63208;52.178;21.016;2022-09-12T08:23:24;12.10;99.90
17033;DHT22;63208;52.178;21.016;2022-09-12T08:25:54;12.20;99.90
17033;DHT22;63208;52.178;21.016;2022-09-12T08:28:22;12.20;99.90
17033;DHT22;63208;52.178;21.016;2022-09-12T08:30:49;12.30;99.90
17033;DHT22;63208;52.178;21.016;2022-09-12T08:33:16;12.40;99.90
17033;DHT22;63208;52.178;21.016;2022-09-12T08:35:42;12.40;99.90
17033;DHT22;63208;52.178;21.016;2022-09-12T08:38:09;12.40;99.90
17033;DHT22;63208;52.178;21.016;2022-09-12T08:40:44;12.40;99.90
17033;DHT22;63208;52.178;21.016;2022-09-12T08:43:27;12.50;99.90
17033;DHT22;63208;52.178;21.016;2022-09-12T08:46:01;12.60;99.90
17033;DHT22;63208;52.178;21.016;2022-09-12T08:48:30;12.60;99.90
17033;DHT22;63208;52.178;21.016;2022-09-12T08:50:57;12.80;99.90
17033;DHT22;63208;52.178;21.016;2022-09-12T08:53:26;12.80;99.90
17033;DHT22;63208;52.178;21.016;2022-09-12T08:55:58;12.80;99.90
17033;DHT22;63208;52.178;21.016;2022-09-12T08:58:27;12.70;99.90
17033;DHT22;63208;52.178;21.016;2022-09-12T09:01:00;12.80;99.90
17033;DHT22;63208;52.178;21.016;2022-09-12T09:03:53;12.70;99.90
17033;DHT22;63208;52.178;21.016;2022-09-12T09:13:00;12.90;99.90
17033;DHT22;63208;52.178;21.016;2022-09-12T09:15:38;13.00;99.90
17033;DHT22;63208;52.178;21.016;2022-09-12T09:18:11;13.00;99.90
17033;DHT22;63208;52.178;21.016;2022-09-12T09:20:45;13.00;99.90
17033;DHT22;63208;52.178;21.016;2022-09-12T09:23:19;13.00;99.90
17033;DHT22;63208;52.178;21.016;2022-09-12T09:25:50;13.00;99.90
17033;DHT22;63208;52.178;21.016;2022-09-12T09:28:24;13.10;99.90
17033;DHT22;63208;52.178;21.016;2022-09-12T09:30:51;13.10;99.90
17033;DHT22;63208;52.178;21.016;2022-09-12T09:33:23;13.10;99.90
17033;DHT22;63208;52.178;21.016;2022-09-12T09:35:55;13.10;99.90
17033;DHT22;63208;52.178;21.016;2022-09-12T09:38:33;13.10;99.90
17033;DHT22;63208;52.178;21.016;2022-09-12T09:41:13;13.20;99.90
17033;DHT22;63208;52.178;21.016;2022-09-12T09:43:50;13.20;99.90
17033;DHT22;63208;52.178;21.016;2022-09-12T09:46:17;13.20;99.90
17033;DHT22;63208;52.178;21.016;2022-09-12T09:48:46;13.30;99.90
17033;DHT22;63208;52.178;21.016;2022-09-12T09:51:24;13.40;99.90
17033;DHT22;63208;52.178;21.016;2022-09-12T09:53:53;13.40;99.90
17033;DHT22;63208;52.178;21.016;2022-09-12T09:56:27;13.40;99.90
17033;DHT22;63208;52.178;21.016;2022-09-12T09:58:55;13.40;99.90
17033;DHT22;63208;52.178;21.016;2022-09-12T10:01:30;13.50;99.90
17033;DHT22;63208;52.178;21.016;2022-09-12T10:03:57;13.50;99.90
17033;DHT22;63208;52.178;21.016;2022-09-12T10:06:28;13.50;99.90
17033;DHT22;63208;52.178;21.016;2022-09-12T10:09:17;13.50;99.90
17033;DHT22;63208;52.178;21.016;2022-09-12T10:11:46;13.50;99.90
17033;DHT22;63208;52.178;21.016;2022-09-12T10:14:36;13.50;99.90
17033;DHT22;63208;52.178;21.016;2022-09-12T10:17:22;13.50;99.90
17033;DHT22;63208;52.178;21.016;2022-09-12T10:19:49;13.50;99.90
17033;DHT22;63208;52.178;21.016;2022-09-12T10:22:20;13.50;99.90
17033;DHT22;63208;52.178;21.016;2022-09-12T10:24:49;13.40;99.90
17033;DHT22;63208;52.178;21.016;2022-09-12T10:27:19;13.40;99.90
17033;DHT22;63208;52.178;21.016;2022-09-12T10:29:53;13.40;99.90
17033;DHT22;63208;52.178;21.016;2022-09-12T10:32:24;13.30;99.90
17033;DHT22;63208;52.178;21.016;2022-09-12T10:34:55;13.30;99.90
17033;DHT22;63208;52.178;21.016;2022-09-12T10:37:29;13.30;99.90
17033;DHT22;63208;52.178;21.016;2022-09-12T10:39:57;13.30;99.90
17033;DHT22;63208;52.178;21.016;2022-09-12T10:42:44;13.30;99.90
17033;DHT22;63208;52.178;21.016;2022-09-12T10:45:38;13.30;99.90
17033;DHT22;63208;52.178;21.016;2022-09-12T10:48:23;13.30;99.90
17033;DHT22;63208;52.178;21.016;2022-09-12T10:50:50;13.30;99.90
17033;DHT22;63208;52.178;21.016;2022-09-12T10:53:20;13.40;99.90
17033;DHT22;63208;52.178;21.016;2022-09-12T10:55:58;13.30;99.90
17033;DHT22;63208;52.178;21.016;2022-09-12T10:58:39;13.40;99.90
17033;DHT22;63208;52.178;21.016;2022-09-12T11:01:17;13.40;99.90
17033;DHT22;63208;52.178;21.016;2022-09-12T11:03:58;13.40;99.90
17033;DHT22;63208;52.178;21.016;2022-09-12T11:06:32;13.40;99.90
17033;DHT22;63208;52.178;21.016;2022-09-12T11:09:05;13.40;99.90
17033;DHT22;63208;52.178;21.016;2022-09-12T11:11:52;13.40;99.90
17033;DHT22;63208;52.178;21.016;2022-09-12T11:14:40;13.50;99.90
17033;DHT22;63208;52.178;21.016;2022-09-12T11:17:21;13.50;99.90
17033;DHT22;63208;52.178;21.016;2022-09-12T11:20:12;13.50;99.90
17033;DHT22;63208;52.178;21.016;2022-09-12T11:25:39;13.60;99.90
17033;DHT22;63208;52.178;21.016;2022-09-12T11:28:28;13.60;99.90
17033;DHT22;63208;52.178;21.016;2022-09-12T11:31:12;13.70;99.90
17033;DHT22;63208;52.178;21.016;2022-09-12T11:33:45;13.70;99.90
17033;DHT22;63208;52.178;21.016;2022-09-12T11:36:22;13.90;99.90
17033;DHT22;63208;52.178;21.016;2022-09-12T11:39:11;14.00;99.90
17033;DHT22;63208;52.178;21.016;2022-09-12T11:41:41;14.10;99.90
17033;DHT22;63208;52.178;21.016;2022-09-12T11:44:15;14.10;99.90
17033;DHT22;63208;52.178;21.016;2022-09-12T11:46:43;14.10;99.90
17033;DHT22;63208;52.178;21.016;2022-09-12T11:49:22;14.00;99.90
17033;DHT22;63208;52.178;21.016;2022-09-12T11:51:54;14.00;99.90
17033;DHT22;63208;52.178;21.016;2022-09-12T11:54:27;14.00;99.90
17033;DHT22;63208;52.178;21.016;2022-09-12T11:57:02;14.00;99.90
17033;DHT22;63208;52.178;21.016;2022-09-12T11:59:38;13.90;99.90
17033;DHT22;63208;52.178;21.016;2022-09-12T12:02:11;13.90;99.90
17033;DHT22;63208;52.178;21.016;2022-09-12T12:05:01;14.00;99.90
17033;DHT22;63208;52.178;21.016;2022-09-12T12:07:37;13.90;99.90
17033;DHT22;63208;52.178;21.016;2022-09-12T12:10:06;13.90;99.90
17033;DHT22;63208;52.178;21.016;2022-09-12T12:12:34;13.90;99.90
17033;DHT22;63208;52.178;21.016;2022-09-12T12:15:02;14.00;99.90
17033;DHT22;63208;52.178;21.016;2022-09-12T12:20:54;14.00;99.90
17033;DHT22;63208;52.178;21.016;2022-09-12T12:23:23;14.00;99.90
17033;DHT22;63208;52.178;21.016;2022-09-12T12:25:52;14.20;99.90
17033;DHT22;63208;52.178;21.016;2022-09-12T12:31:23;14.20;99.90
17033;DHT22;63208;52.178;21.016;2022-09-12T12:34:18;14.20;99.90
17033;DHT22;63208;52.178;21.016;2022-09-12T12:36:47;14.20;99.90
17033;DHT22;63208;52.178;21.016;2022-09-12T12:48:33;14.30;99.90
17033;DHT22;63208;52.178;21.016;2022-09-12T12:51:30;14.30;99.90
17033;DHT22;63208;52.178;21.016;2022-09-12T12:54:02;14.40;99.90
17033;DHT22;63208;52.178;21.016;2022-09-12T12:56:41;14.30;99.90
17033;DHT22;63208;52.178;21.016;2022-09-12T13:20:44;14.50;99.90
17033;DHT22;63208;52.178;21.016;2022-09-12T13:23:21;14.50;99.90
17033;DHT22;63208;52.178;21.016;2022-09-12T13:25:51;14.60;99.90
17033;DHT22;63208;52.178;21.016;2022-09-12T13:28:19;14.60;99.90
17033;DHT22;63208;52.178;21.016;2022-09-12T13:36:45;14.60;99.90
17033;DHT22;63208;52.178;21.016;2022-09-12T13:39:19;14.60;99.90
17033;DHT22;63208;52.178;21.016;2022-09-12T13:42:07;14.60;99.90
17033;DHT22;63208;52.178;21.016;2022-09-12T13:44:44;14.60;99.90
17033;DHT22;63208;52.178;21.016;2022-09-12T13:47:14;14.60;99.90
17033;DHT22;63208;52.178;21.016;2022-09-12T13:49:42;14.80;99.90
17033;DHT22;63208;52.178;21.016;2022-09-12T13:52:16;14.90;99.90
17033;DHT22;63208;52.178;21.016;2022-09-12T13:54:47;15.00;99.90
17033;DHT22;63208;52.178;21.016;2022-09-12T14:03:25;15.00;99.90
17033;DHT22;63208;52.178;21.016;2022-09-12T14:06:10;15.10;99.90
17033;DHT22;63208;52.178;21.016;2022-09-12T14:08:42;15.20;99.90
17033;DHT22;63208;52.178;21.016;2022-09-12T14:11:20;15.30;99.90
17033;DHT22;63208;52.178;21.016;2022-09-12T14:13:48;15.40;99.90
17033;DHT22;63208;52.178;21.016;2022-09-12T14:16:17;15.40;99.90
17033;DHT22;63208;52.178;21.016;2022-09-12T14:18:46;15.50;99.90
17033;DHT22;63208;52.178;21.016;2022-09-12T14:21:31;15.50;99.90
17033;DHT22;63208;52.178;21.016;2022-09-12T14:24:02;15.60;99.90
17033;DHT22;63208;52.178;21.016;2022-09-12T14:26:33;15.70;99.90
17033;DHT22;63208;52.178;21.016;2022-09-12T14:29:01;15.70;99.90
17033;DHT22;63208;52.178;21.016;2022-09-12T14:31:31;15.80;99.90
17033;DHT22;63208;52.178;21.016;2022-09-12T14:34:09;15.80;99.90
17033;DHT22;63208;52.178;21.016;2022-09-12T14:36:40;15.70;99.90
17033;DHT22;63208;52.178;21.016;2022-09-12T14:39:19;15.60;99.90
17033;DHT22;63208;52.178;21.016;2022-09-12T14:41:48;15.50;99.90
17033;DHT22;63208;52.178;21.016;2022-09-12T14:44:18;15.40;99.90
17033;DHT22;63208;52.178;21.016;2022-09-12T14:46:46;15.40;99.90
17033;DHT22;63208;52.178;21.016;2022-09-12T14:49:16;15.30;99.90
17033;DHT22;63208;52.178;21.016;2022-09-12T14:51:52;15.30;99.90
17033;DHT22;63208;52.178;21.016;2022-09-12T14:54:39;15.30;99.90
17033;DHT22;63208;52.178;21.016;2022-09-12T14:57:42;15.30;99.90
17033;DHT22;63208;52.178;21.016;2022-09-12T15:00:20;15.30;99.90
17033;DHT22;63208;52.178;21.016;2022-09-12T15:03:21;15.30;99.90
17033;DHT22;63208;52.178;21.016;2022-09-12T15:05:54;15.30;99.90
17033;DHT22;63208;52.178;21.016;2022-09-12T15:08:21;15.30;99.90
17033;DHT22;63208;52.178;21.016;2022-09-12T15:10:50;15.30;99.90
17033;DHT22;63208;52.178;21.016;2022-09-12T15:13:21;15.30;99.90
17033;DHT22;63208;52.178;21.016;2022-09-12T15:15:51;15.30;99.90
17033;DHT22;63208;52.178;21.016;2022-09-12T15:18:19;15.30;99.90
17033;DHT22;63208;52.178;21.016;2022-09-12T15:20:48;15.20;99.90
17033;DHT22;63208;52.178;21.016;2022-09-12T15:23:28;15.20;99.90
17033;DHT22;63208;52.178;21.016;2022-09-12T15:25:58;15.20;99.90
17033;DHT22;63208;52.178;21.016;2022-09-12T15:28:25;15.20;99.90
17033;DHT22;63208;52.178;21.016;2022-09-12T15:30:54;15.10;99.90
17033;DHT22;63208;52.178;21.016;2022-09-12T15:33:23;15.10;99.90
17033;DHT22;63208;52.178;21.016;2022-09-12T15:35:51;15.00;99.90
17033;DHT22;63208;52.178;21.016;2022-09-12T15:38:18;15.00;99.90
17033;DHT22;63208;52.178;21.016;2022-09-12T15:40:48;15.00;99.90
17033;DHT22;63208;52.178;21.016;2022-09-12T15:43:19;14.90;99.90
17033;DHT22;63208;52.178;21.016;2022-09-12T15:45:47;14.90;99.90
17033;DHT22;63208;52.178;21.016;2022-09-12T15:48:16;14.90;99.90
17033;DHT22;63208;52.178;21.016;2022-09-12T15:50:43;14.90;99.90
17033;DHT22;63208;52.178;21.016;2022-09-12T15:53:13;14.80;99.90
17033;DHT22;63208;52.178;21.016;2022-09-12T15:55:41;14.80;99.90
17033;DHT22;63208;52.178;21.016;2022-09-12T15:58:08;14.70;99.90
17033;DHT22;63208;52.178;21.016;2022-09-12T16:00:37;14.70;99.90
17033;DHT22;63208;52.178;21.016;2022-09-12T16:03:04;14.70;99.90
17033;DHT22;63208;52.178;21.016;2022-09-12T16:05:31;14.60;99.90
17033;DHT22;63208;52.178;21.016;2022-09-12T16:07:58;14.20;99.90
17033;DHT22;63208;52.178;21.016;2022-09-12T16:10:27;14.60;99.90
17033;DHT22;63208;52.178;21.016;2022-09-12T16:12:55;14.60;99.90
17033;DHT22;63208;52.178;21.016;2022-09-12T16:15:24;14.20;99.90
17033;DHT22;63208;52.178;21.016;2022-09-12T16:17:52;14.50;99.90
17033;DHT22;63208;52.178;21.016;2022-09-12T16:20:20;14.50;99.90
17033;DHT22;63208;52.178;21.016;2022-09-12T16:22:47;14.50;99.90
17033;DHT22;63208;52.178;21.016;2022-09-12T16:25:15;14.40;99.90
17033;DHT22;63208;52.178;21.016;2022-09-12T16:27:42;14.40;99.90
17033;DHT22;63208;52.178;21.016;2022-09-12T16:30:09;14.40;99.90
17033;DHT22;63208;52.178;21.016;2022-09-12T16:32:37;14.40;99.90
17033;DHT22;63208;52.178;21.016;2022-09-12T16:35:12;14.30;99.90
17033;DHT22;63208;52.178;21.016;2022-09-12T16:37:39;14.30;99.90
17033;DHT22;63208;52.178;21.016;2022-09-12T16:40:06;14.30;99.90
17033;DHT22;63208;52.178;21.016;2022-09-12T16:42:34;14.30;99.90
17033;DHT22;63208;52.178;21.016;2022-09-12T16:45:01;14.30;99.90
17033;DHT22;63208;52.178;21.016;2022-09-12T16:47:28;14.30;99.90
17033;DHT22;63208;52.178;21.016;2022-09-12T16:49:56;14.30;99.90
17033;DHT22;63208;52.178;21.016;2022-09-12T16:52:25;14.20;99.90
17033;DHT22;63208;52.178;21.016;2022-09-12T16:54:53;14.30;99.90
17033;DHT22;63208;52.178;21.016;2022-09-12T16:57:20;14.20;99.90
17033;DHT22;63208;52.178;21.016;2022-09-12T16:59:48;14.20;99.90
17033;DHT22;63208;52.178;21.016;2022-09-12T17:02:15;14.20;99.90
17033;DHT22;63208;52.178;21.016;2022-09-12T17:04:42;14.20;99.90
17033;DHT22;63208;52.178;21.016;2022-09-12T17:07:09;14.20;99.90
17033;DHT22;63208;52.178;21.016;2022-09-12T17:09:37;14.20;99.90
17033;DHT22;63208;52.178;21.016;2022-09-12T17:12:05;14.20;99.90